sensor_id;sensor_type;location;lat;lon;timestamp;P1;durP1;ratioP1;P2;durP2;ratioP2
16979;SDS011;42288;52.182;21.156;2023-07-28T00:01:01;8.57;;;5.10;;
16979;SDS011;42288;52.182;21.156;2023-07-28T00:03:27;8.77;;;4.90;;
16979;SDS011;42288;52.182;21.156;2023-07-28T00:05:52;9.70;;;5.23;;
16979;SDS011;42288;52.182;21.156;2023-07-28T00:08:18;9.00;;;5.50;;
16979;SDS011;42288;52.182;21.156;2023-07-28T00:10:44;8.13;;;5.20;;
16979;SDS011;42288;52.182;21.156;2023-07-28T00:13:09;7.97;;;5.43;;
16979;SDS011;42288;52.182;21.156;2023-07-28T00:15:35;6.83;;;4.50;;
16979;SDS011;42288;52.182;21.156;2023-07-28T00:18:00;6.97;;;4.90;;
16979;SDS011;42288;52.182;21.156;2023-07-28T00:20:27;7.97;;;4.83;;
16979;SDS011;42288;52.182;21.156;2023-07-28T00:22:53;10.37;;;5.37;;
16979;SDS011;42288;52.182;21.156;2023-07-28T00:25:18;7.80;;;5.10;;
16979;SDS011;42288;52.182;21.156;2023-07-28T00:27:44;7.67;;;5.30;;
16979;SDS011;42288;52.182;21.156;2023-07-28T00:30:10;7.17;;;4.50;;
16979;SDS011;42288;52.182;21.156;2023-07-28T00:32:36;9.77;;;5.23;;
16979;SDS011;42288;52.182;21.156;2023-07-28T00:35:02;7.33;;;4.47;;
16979;SDS011;42288;52.182;21.156;2023-07-28T00:37:28;7.67;;;5.17;;
16979;SDS011;42288;52.182;21.156;2023-07-28T00:39:53;7.47;;;4.60;;
16979;SDS011;42288;52.182;21.156;2023-07-28T00:42:19;14.00;;;4.93;;
16979;SDS011;42288;52.182;21.156;2023-07-28T00:44:44;8.93;;;4.90;;
16979;SDS011;42288;52.182;21.156;2023-07-28T00:47:10;12.03;;;4.77;;
16979;SDS011;42288;52.182;21.156;2023-07-28T00:49:36;7.30;;;4.67;;
16979;SDS011;42288;52.182;21.156;2023-07-28T00:52:04;7.73;;;4.90;;
16979;SDS011;42288;52.182;21.156;2023-07-28T00:54:32;7.07;;;4.47;;
16979;SDS011;42288;52.182;21.156;2023-07-28T00:56:59;8.57;;;4.83;;
16979;SDS011;42288;52.182;21.156;2023-07-28T00:59:25;8.03;;;5.10;;
16979;SDS011;42288;52.182;21.156;2023-07-28T01:01:51;6.13;;;4.60;;
16979;SDS011;42288;52.182;21.156;2023-07-28T01:04:17;9.40;;;4.67;;
16979;SDS011;42288;52.182;21.156;2023-07-28T01:09:12;9.90;;;4.60;;
16979;SDS011;42288;52.182;21.156;2023-07-28T01:11:52;8.60;;;4.80;;
16979;SDS011;42288;52.182;21.156;2023-07-28T01:14:22;6.77;;;4.63;;
16979;SDS011;42288;52.182;21.156;2023-07-28T01:16:48;10.70;;;5.50;;
16979;SDS011;42288;52.182;21.156;2023-07-28T01:19:15;8.23;;;4.83;;
16979;SDS011;42288;52.182;21.156;2023-07-28T01:21:43;10.47;;;4.70;;
16979;SDS011;42288;52.182;21.156;2023-07-28T01:26:38;9.47;;;4.63;;
16979;SDS011;42288;52.182;21.156;2023-07-28T01:29:05;5.80;;;4.40;;
16979;SDS011;42288;52.182;21.156;2023-07-28T01:31:31;7.63;;;4.57;;
16979;SDS011;42288;52.182;21.156;2023-07-28T01:33:57;7.43;;;4.60;;
16979;SDS011;42288;52.182;21.156;2023-07-28T01:36:22;7.23;;;4.90;;
16979;SDS011;42288;52.182;21.156;2023-07-28T01:38:48;7.20;;;4.40;;
16979;SDS011;42288;52.182;21.156;2023-07-28T01:41:14;7.27;;;4.60;;
16979;SDS011;42288;52.182;21.156;2023-07-28T01:43:39;7.17;;;4.50;;
16979;SDS011;42288;52.182;21.156;2023-07-28T01:46:06;5.77;;;4.10;;
16979;SDS011;42288;52.182;21.156;2023-07-28T01:48:32;6.80;;;4.40;;
16979;SDS011;42288;52.182;21.156;2023-07-28T01:50:58;8.30;;;4.33;;
16979;SDS011;42288;52.182;21.156;2023-07-28T01:53:23;7.67;;;4.60;;
16979;SDS011;42288;52.182;21.156;2023-07-28T01:55:49;8.27;;;4.40;;
16979;SDS011;42288;52.182;21.156;2023-07-28T01:58:14;6.93;;;4.50;;
16979;SDS011;42288;52.182;21.156;2023-07-28T02:00:40;8.70;;;4.37;;
16979;SDS011;42288;52.182;21.156;2023-07-28T02:03:05;7.43;;;4.27;;
16979;SDS011;42288;52.182;21.156;2023-07-28T02:05:32;8.47;;;4.47;;
16979;SDS011;42288;52.182;21.156;2023-07-28T02:07:57;6.67;;;4.50;;
16979;SDS011;42288;52.182;21.156;2023-07-28T02:10:23;6.67;;;4.47;;
16979;SDS011;42288;52.182;21.156;2023-07-28T02:12:51;8.17;;;4.93;;
16979;SDS011;42288;52.182;21.156;2023-07-28T02:15:17;6.07;;;4.13;;
16979;SDS011;42288;52.182;21.156;2023-07-28T02:17:42;7.07;;;4.63;;
16979;SDS011;42288;52.182;21.156;2023-07-28T02:20:08;9.57;;;4.80;;
16979;SDS011;42288;52.182;21.156;2023-07-28T02:22:38;7.17;;;4.70;;
16979;SDS011;42288;52.182;21.156;2023-07-28T02:25:05;8.77;;;4.60;;
16979;SDS011;42288;52.182;21.156;2023-07-28T02:27:30;6.83;;;4.63;;
16979;SDS011;42288;52.182;21.156;2023-07-28T02:29:56;5.67;;;4.20;;
16979;SDS011;42288;52.182;21.156;2023-07-28T02:32:22;7.33;;;4.43;;
16979;SDS011;42288;52.182;21.156;2023-07-28T02:34:47;9.13;;;4.77;;
16979;SDS011;42288;52.182;21.156;2023-07-28T02:37:14;9.47;;;4.83;;
16979;SDS011;42288;52.182;21.156;2023-07-28T02:39:40;8.17;;;4.80;;
16979;SDS011;42288;52.182;21.156;2023-07-28T02:42:05;5.73;;;4.23;;
16979;SDS011;42288;52.182;21.156;2023-07-28T02:44:31;7.67;;;4.37;;
16979;SDS011;42288;52.182;21.156;2023-07-28T02:46:57;8.37;;;4.50;;
16979;SDS011;42288;52.182;21.156;2023-07-28T02:49:22;9.80;;;4.60;;
16979;SDS011;42288;52.182;21.156;2023-07-28T02:51:48;6.67;;;4.53;;
16979;SDS011;42288;52.182;21.156;2023-07-28T02:54:13;6.67;;;4.53;;
16979;SDS011;42288;52.182;21.156;2023-07-28T02:56:39;8.07;;;4.53;;
16979;SDS011;42288;52.182;21.156;2023-07-28T02:59:05;6.57;;;4.17;;
16979;SDS011;42288;52.182;21.156;2023-07-28T03:01:30;7.47;;;4.93;;
16979;SDS011;42288;52.182;21.156;2023-07-28T03:04:00;10.40;;;5.00;;
16979;SDS011;42288;52.182;21.156;2023-07-28T03:06:26;10.20;;;5.27;;
16979;SDS011;42288;52.182;21.156;2023-07-28T03:08:52;9.83;;;4.70;;
16979;SDS011;42288;52.182;21.156;2023-07-28T03:11:18;8.97;;;5.23;;
16979;SDS011;42288;52.182;21.156;2023-07-28T03:13:43;8.87;;;5.37;;
16979;SDS011;42288;52.182;21.156;2023-07-28T03:16:09;8.53;;;5.03;;
16979;SDS011;42288;52.182;21.156;2023-07-28T03:18:34;5.20;;;4.30;;
16979;SDS011;42288;52.182;21.156;2023-07-28T03:21:00;6.97;;;5.30;;
16979;SDS011;42288;52.182;21.156;2023-07-28T03:23:26;10.27;;;5.17;;
16979;SDS011;42288;52.182;21.156;2023-07-28T03:25:51;8.10;;;4.90;;
16979;SDS011;42288;52.182;21.156;2023-07-28T03:28:17;9.80;;;5.20;;
16979;SDS011;42288;52.182;21.156;2023-07-28T03:30:43;8.07;;;4.67;;
16979;SDS011;42288;52.182;21.156;2023-07-28T03:33:08;9.27;;;4.30;;
16979;SDS011;42288;52.182;21.156;2023-07-28T03:35:34;7.70;;;5.57;;
16979;SDS011;42288;52.182;21.156;2023-07-28T03:37:59;8.83;;;5.20;;
16979;SDS011;42288;52.182;21.156;2023-07-28T03:40:25;7.50;;;5.07;;
16979;SDS011;42288;52.182;21.156;2023-07-28T03:42:51;11.53;;;5.30;;
16979;SDS011;42288;52.182;21.156;2023-07-28T03:45:17;7.77;;;4.70;;
16979;SDS011;42288;52.182;21.156;2023-07-28T03:47:43;9.03;;;5.20;;
16979;SDS011;42288;52.182;21.156;2023-07-28T03:50:09;8.57;;;5.83;;
16979;SDS011;42288;52.182;21.156;2023-07-28T03:52:34;9.77;;;5.50;;
16979;SDS011;42288;52.182;21.156;2023-07-28T03:55:00;8.70;;;5.10;;
16979;SDS011;42288;52.182;21.156;2023-07-28T03:57:25;7.20;;;5.20;;
16979;SDS011;42288;52.182;21.156;2023-07-28T03:59:51;9.17;;;5.33;;
16979;SDS011;42288;52.182;21.156;2023-07-28T04:02:17;8.93;;;5.30;;
16979;SDS011;42288;52.182;21.156;2023-07-28T04:04:42;8.87;;;5.20;;
16979;SDS011;42288;52.182;21.156;2023-07-28T04:07:08;8.33;;;5.30;;
16979;SDS011;42288;52.182;21.156;2023-07-28T04:09:33;8.53;;;5.00;;
16979;SDS011;42288;52.182;21.156;2023-07-28T04:11:59;8.57;;;5.57;;
16979;SDS011;42288;52.182;21.156;2023-07-28T04:14:24;9.10;;;5.47;;
16979;SDS011;42288;52.182;21.156;2023-07-28T04:16:50;6.53;;;5.13;;
16979;SDS011;42288;52.182;21.156;2023-07-28T04:19:15;8.93;;;5.17;;
16979;SDS011;42288;52.182;21.156;2023-07-28T04:21:41;7.87;;;5.10;;
16979;SDS011;42288;52.182;21.156;2023-07-28T04:24:07;8.67;;;5.33;;
16979;SDS011;42288;52.182;21.156;2023-07-28T04:26:33;8.60;;;4.80;;
16979;SDS011;42288;52.182;21.156;2023-07-28T04:28:59;8.97;;;5.13;;
16979;SDS011;42288;52.182;21.156;2023-07-28T04:31:25;7.27;;;4.87;;
16979;SDS011;42288;52.182;21.156;2023-07-28T04:33:50;8.73;;;5.27;;
16979;SDS011;42288;52.182;21.156;2023-07-28T04:36:16;9.13;;;4.93;;
16979;SDS011;42288;52.182;21.156;2023-07-28T04:38:41;10.63;;;4.93;;
16979;SDS011;42288;52.182;21.156;2023-07-28T04:41:07;7.00;;;4.77;;
16979;SDS011;42288;52.182;21.156;2023-07-28T04:43:32;14.37;;;5.07;;
16979;SDS011;42288;52.182;21.156;2023-07-28T04:45:58;6.93;;;4.07;;
16979;SDS011;42288;52.182;21.156;2023-07-28T04:48:24;9.03;;;4.90;;
16979;SDS011;42288;52.182;21.156;2023-07-28T04:50:49;9.67;;;5.33;;
16979;SDS011;42288;52.182;21.156;2023-07-28T04:53:15;10.60;;;5.17;;
16979;SDS011;42288;52.182;21.156;2023-07-28T04:55:40;8.87;;;5.07;;
16979;SDS011;42288;52.182;21.156;2023-07-28T04:58:06;7.77;;;4.63;;
16979;SDS011;42288;52.182;21.156;2023-07-28T05:00:31;9.60;;;4.60;;
16979;SDS011;42288;52.182;21.156;2023-07-28T05:02:57;6.17;;;3.90;;
16979;SDS011;42288;52.182;21.156;2023-07-28T05:05:23;10.13;;;4.70;;
16979;SDS011;42288;52.182;21.156;2023-07-28T05:07:48;8.33;;;4.60;;
16979;SDS011;42288;52.182;21.156;2023-07-28T05:10:14;10.13;;;4.73;;
16979;SDS011;42288;52.182;21.156;2023-07-28T05:12:42;7.83;;;4.10;;
16979;SDS011;42288;52.182;21.156;2023-07-28T05:15:08;7.17;;;4.57;;
16979;SDS011;42288;52.182;21.156;2023-07-28T05:17:35;7.33;;;4.17;;
16979;SDS011;42288;52.182;21.156;2023-07-28T05:20:02;8.83;;;3.97;;
16979;SDS011;42288;52.182;21.156;2023-07-28T05:22:28;7.03;;;4.63;;
16979;SDS011;42288;52.182;21.156;2023-07-28T05:24:53;7.37;;;4.60;;
16979;SDS011;42288;52.182;21.156;2023-07-28T05:27:19;6.43;;;4.00;;
16979;SDS011;42288;52.182;21.156;2023-07-28T05:29:44;8.40;;;4.83;;
16979;SDS011;42288;52.182;21.156;2023-07-28T05:32:10;6.33;;;4.07;;
16979;SDS011;42288;52.182;21.156;2023-07-28T05:34:35;5.17;;;3.87;;
16979;SDS011;42288;52.182;21.156;2023-07-28T05:37:01;6.53;;;4.10;;
16979;SDS011;42288;52.182;21.156;2023-07-28T05:39:27;9.20;;;4.00;;
16979;SDS011;42288;52.182;21.156;2023-07-28T05:41:52;7.97;;;3.97;;
16979;SDS011;42288;52.182;21.156;2023-07-28T05:44:19;8.30;;;4.70;;
16979;SDS011;42288;52.182;21.156;2023-07-28T05:46:44;6.13;;;4.00;;
16979;SDS011;42288;52.182;21.156;2023-07-28T05:49:13;5.93;;;3.90;;
16979;SDS011;42288;52.182;21.156;2023-07-28T05:51:38;6.93;;;3.93;;
16979;SDS011;42288;52.182;21.156;2023-07-28T05:54:04;8.17;;;4.20;;
16979;SDS011;42288;52.182;21.156;2023-07-28T05:56:29;7.00;;;4.00;;
16979;SDS011;42288;52.182;21.156;2023-07-28T05:58:55;6.57;;;3.80;;
16979;SDS011;42288;52.182;21.156;2023-07-28T06:01:21;6.23;;;3.93;;
16979;SDS011;42288;52.182;21.156;2023-07-28T06:03:46;7.00;;;4.00;;
16979;SDS011;42288;52.182;21.156;2023-07-28T06:06:12;5.43;;;3.50;;
16979;SDS011;42288;52.182;21.156;2023-07-28T06:08:38;7.57;;;4.17;;
16979;SDS011;42288;52.182;21.156;2023-07-28T06:11:04;7.43;;;4.13;;
16979;SDS011;42288;52.182;21.156;2023-07-28T06:13:30;6.13;;;3.27;;
16979;SDS011;42288;52.182;21.156;2023-07-28T06:15:56;5.20;;;3.50;;
16979;SDS011;42288;52.182;21.156;2023-07-28T06:18:23;10.33;;;3.67;;
16979;SDS011;42288;52.182;21.156;2023-07-28T06:20:49;5.23;;;3.40;;
16979;SDS011;42288;52.182;21.156;2023-07-28T06:23:15;7.67;;;3.40;;
16979;SDS011;42288;52.182;21.156;2023-07-28T06:25:40;6.53;;;3.60;;
16979;SDS011;42288;52.182;21.156;2023-07-28T06:28:12;4.60;;;3.23;;
16979;SDS011;42288;52.182;21.156;2023-07-28T06:30:38;5.13;;;3.00;;
16979;SDS011;42288;52.182;21.156;2023-07-28T06:33:07;5.90;;;3.20;;
16979;SDS011;42288;52.182;21.156;2023-07-28T06:35:34;5.20;;;3.10;;
16979;SDS011;42288;52.182;21.156;2023-07-28T06:38:00;5.97;;;3.40;;
16979;SDS011;42288;52.182;21.156;2023-07-28T06:40:27;6.00;;;2.93;;
16979;SDS011;42288;52.182;21.156;2023-07-28T06:42:52;5.23;;;3.43;;
16979;SDS011;42288;52.182;21.156;2023-07-28T06:45:19;4.93;;;3.10;;
16979;SDS011;42288;52.182;21.156;2023-07-28T06:47:45;5.80;;;3.30;;
16979;SDS011;42288;52.182;21.156;2023-07-28T06:50:10;7.73;;;3.40;;
16979;SDS011;42288;52.182;21.156;2023-07-28T06:52:36;4.23;;;3.03;;
16979;SDS011;42288;52.182;21.156;2023-07-28T06:55:02;6.13;;;3.23;;
16979;SDS011;42288;52.182;21.156;2023-07-28T06:57:28;7.37;;;3.23;;
16979;SDS011;42288;52.182;21.156;2023-07-28T06:59:55;5.90;;;3.10;;
16979;SDS011;42288;52.182;21.156;2023-07-28T07:02:21;8.00;;;3.13;;
16979;SDS011;42288;52.182;21.156;2023-07-28T07:04:47;7.83;;;3.20;;
16979;SDS011;42288;52.182;21.156;2023-07-28T07:07:12;5.57;;;3.10;;
16979;SDS011;42288;52.182;21.156;2023-07-28T07:09:38;5.03;;;3.07;;
16979;SDS011;42288;52.182;21.156;2023-07-28T07:12:04;5.43;;;3.10;;
16979;SDS011;42288;52.182;21.156;2023-07-28T07:14:30;4.77;;;2.97;;
16979;SDS011;42288;52.182;21.156;2023-07-28T07:16:56;6.57;;;3.30;;
16979;SDS011;42288;52.182;21.156;2023-07-28T07:19:21;6.20;;;2.93;;
16979;SDS011;42288;52.182;21.156;2023-07-28T07:21:47;6.57;;;3.30;;
16979;SDS011;42288;52.182;21.156;2023-07-28T07:24:14;6.90;;;3.70;;
16979;SDS011;42288;52.182;21.156;2023-07-28T07:26:40;8.03;;;3.57;;
16979;SDS011;42288;52.182;21.156;2023-07-28T07:29:06;5.37;;;3.63;;
16979;SDS011;42288;52.182;21.156;2023-07-28T07:31:33;5.93;;;3.40;;
16979;SDS011;42288;52.182;21.156;2023-07-28T07:33:58;5.70;;;4.03;;
16979;SDS011;42288;52.182;21.156;2023-07-28T07:36:24;6.03;;;4.10;;
16979;SDS011;42288;52.182;21.156;2023-07-28T07:38:50;6.13;;;4.00;;
16979;SDS011;42288;52.182;21.156;2023-07-28T07:41:16;6.73;;;4.00;;
16979;SDS011;42288;52.182;21.156;2023-07-28T07:43:45;9.87;;;3.63;;
16979;SDS011;42288;52.182;21.156;2023-07-28T07:46:11;8.17;;;3.73;;
16979;SDS011;42288;52.182;21.156;2023-07-28T07:48:37;5.23;;;3.43;;
16979;SDS011;42288;52.182;21.156;2023-07-28T07:51:03;7.57;;;3.83;;
16979;SDS011;42288;52.182;21.156;2023-07-28T07:53:28;6.10;;;3.47;;
16979;SDS011;42288;52.182;21.156;2023-07-28T07:55:54;4.30;;;3.10;;
16979;SDS011;42288;52.182;21.156;2023-07-28T07:58:20;5.63;;;3.77;;
16979;SDS011;42288;52.182;21.156;2023-07-28T08:00:45;6.67;;;4.43;;
16979;SDS011;42288;52.182;21.156;2023-07-28T08:03:11;6.63;;;3.80;;
16979;SDS011;42288;52.182;21.156;2023-07-28T08:05:37;6.00;;;3.87;;
16979;SDS011;42288;52.182;21.156;2023-07-28T08:08:02;6.50;;;4.27;;
16979;SDS011;42288;52.182;21.156;2023-07-28T08:10:30;7.17;;;3.67;;
16979;SDS011;42288;52.182;21.156;2023-07-28T08:12:55;5.40;;;3.37;;
16979;SDS011;42288;52.182;21.156;2023-07-28T08:15:21;8.03;;;4.17;;
16979;SDS011;42288;52.182;21.156;2023-07-28T08:17:46;5.93;;;3.70;;
16979;SDS011;42288;52.182;21.156;2023-07-28T08:20:12;6.87;;;3.53;;
16979;SDS011;42288;52.182;21.156;2023-07-28T08:22:38;6.47;;;3.93;;
16979;SDS011;42288;52.182;21.156;2023-07-28T08:25:04;6.83;;;3.87;;
16979;SDS011;42288;52.182;21.156;2023-07-28T08:27:30;6.63;;;4.00;;
16979;SDS011;42288;52.182;21.156;2023-07-28T08:29:55;7.20;;;3.60;;
16979;SDS011;42288;52.182;21.156;2023-07-28T08:32:21;8.77;;;4.30;;
16979;SDS011;42288;52.182;21.156;2023-07-28T08:34:47;6.03;;;4.13;;
16979;SDS011;42288;52.182;21.156;2023-07-28T08:37:13;7.27;;;4.10;;
16979;SDS011;42288;52.182;21.156;2023-07-28T08:39:38;5.30;;;3.83;;
16979;SDS011;42288;52.182;21.156;2023-07-28T08:42:04;6.97;;;4.47;;
16979;SDS011;42288;52.182;21.156;2023-07-28T08:44:31;6.20;;;3.93;;
16979;SDS011;42288;52.182;21.156;2023-07-28T08:46:58;10.07;;;4.10;;
16979;SDS011;42288;52.182;21.156;2023-07-28T08:49:28;7.17;;;3.80;;
16979;SDS011;42288;52.182;21.156;2023-07-28T08:51:59;8.30;;;4.17;;
16979;SDS011;42288;52.182;21.156;2023-07-28T08:54:25;6.60;;;4.03;;
16979;SDS011;42288;52.182;21.156;2023-07-28T08:56:51;6.93;;;4.03;;
16979;SDS011;42288;52.182;21.156;2023-07-28T08:59:24;7.43;;;4.90;;
16979;SDS011;42288;52.182;21.156;2023-07-28T09:01:52;7.10;;;4.50;;
16979;SDS011;42288;52.182;21.156;2023-07-28T09:04:18;6.03;;;4.17;;
16979;SDS011;42288;52.182;21.156;2023-07-28T09:06:45;7.57;;;3.87;;
16979;SDS011;42288;52.182;21.156;2023-07-28T09:09:12;6.40;;;4.00;;
16979;SDS011;42288;52.182;21.156;2023-07-28T09:14:18;7.47;;;4.87;;
16979;SDS011;42288;52.182;21.156;2023-07-28T09:16:45;5.20;;;3.70;;
16979;SDS011;42288;52.182;21.156;2023-07-28T09:19:11;10.60;;;4.70;;
16979;SDS011;42288;52.182;21.156;2023-07-28T09:21:38;8.87;;;4.27;;
16979;SDS011;42288;52.182;21.156;2023-07-28T09:24:12;6.10;;;4.10;;
16979;SDS011;42288;52.182;21.156;2023-07-28T09:26:39;7.10;;;3.90;;
16979;SDS011;42288;52.182;21.156;2023-07-28T09:31:48;6.67;;;4.70;;
16979;SDS011;42288;52.182;21.156;2023-07-28T09:34:27;6.80;;;4.53;;
16979;SDS011;42288;52.182;21.156;2023-07-28T09:36:53;6.37;;;4.27;;
16979;SDS011;42288;52.182;21.156;2023-07-28T09:39:20;6.43;;;4.60;;
16979;SDS011;42288;52.182;21.156;2023-07-28T09:41:46;6.33;;;4.60;;
16979;SDS011;42288;52.182;21.156;2023-07-28T09:44:12;7.43;;;4.10;;
16979;SDS011;42288;52.182;21.156;2023-07-28T09:46:50;5.17;;;3.93;;
16979;SDS011;42288;52.182;21.156;2023-07-28T09:49:20;8.53;;;4.43;;
16979;SDS011;42288;52.182;21.156;2023-07-28T09:52:08;6.23;;;4.10;;
16979;SDS011;42288;52.182;21.156;2023-07-28T09:54:38;7.97;;;4.07;;
16979;SDS011;42288;52.182;21.156;2023-07-28T09:57:07;9.03;;;3.90;;
16979;SDS011;42288;52.182;21.156;2023-07-28T09:59:37;6.63;;;3.97;;
16979;SDS011;42288;52.182;21.156;2023-07-28T10:02:04;6.93;;;4.33;;
16979;SDS011;42288;52.182;21.156;2023-07-28T10:04:30;6.27;;;3.83;;
16979;SDS011;42288;52.182;21.156;2023-07-28T10:06:57;5.30;;;4.00;;
16979;SDS011;42288;52.182;21.156;2023-07-28T10:09:26;6.23;;;3.77;;
16979;SDS011;42288;52.182;21.156;2023-07-28T10:11:54;5.77;;;4.00;;
16979;SDS011;42288;52.182;21.156;2023-07-28T10:16:57;6.17;;;3.97;;
16979;SDS011;42288;52.182;21.156;2023-07-28T10:19:26;7.87;;;4.30;;
16979;SDS011;42288;52.182;21.156;2023-07-28T10:22:04;5.37;;;3.77;;
16979;SDS011;42288;52.182;21.156;2023-07-28T10:27:29;5.73;;;4.00;;
16979;SDS011;42288;52.182;21.156;2023-07-28T10:29:57;6.30;;;4.27;;
16979;SDS011;42288;52.182;21.156;2023-07-28T10:32:28;5.50;;;3.73;;
16979;SDS011;42288;52.182;21.156;2023-07-28T10:35:00;5.53;;;3.77;;
16979;SDS011;42288;52.182;21.156;2023-07-28T10:37:30;6.20;;;3.83;;
16979;SDS011;42288;52.182;21.156;2023-07-28T10:42:47;5.03;;;3.27;;
16979;SDS011;42288;52.182;21.156;2023-07-28T10:45:13;10.27;;;4.07;;
16979;SDS011;42288;52.182;21.156;2023-07-28T10:47:40;6.83;;;4.13;;
16979;SDS011;42288;52.182;21.156;2023-07-28T10:50:09;6.50;;;3.90;;
16979;SDS011;42288;52.182;21.156;2023-07-28T10:52:45;6.53;;;4.20;;
16979;SDS011;42288;52.182;21.156;2023-07-28T10:55:12;6.00;;;3.70;;
16979;SDS011;42288;52.182;21.156;2023-07-28T10:57:40;6.07;;;3.93;;
16979;SDS011;42288;52.182;21.156;2023-07-28T11:00:07;7.90;;;4.50;;
16979;SDS011;42288;52.182;21.156;2023-07-28T11:02:33;7.70;;;3.93;;
16979;SDS011;42288;52.182;21.156;2023-07-28T11:05:05;11.60;;;4.97;;
16979;SDS011;42288;52.182;21.156;2023-07-28T11:07:32;5.13;;;3.40;;
16979;SDS011;42288;52.182;21.156;2023-07-28T11:09:59;7.13;;;3.63;;
16979;SDS011;42288;52.182;21.156;2023-07-28T11:12:26;7.97;;;3.90;;
16979;SDS011;42288;52.182;21.156;2023-07-28T11:14:51;6.80;;;3.80;;
16979;SDS011;42288;52.182;21.156;2023-07-28T11:17:17;6.30;;;3.73;;
16979;SDS011;42288;52.182;21.156;2023-07-28T11:19:43;5.43;;;3.57;;
16979;SDS011;42288;52.182;21.156;2023-07-28T11:22:09;5.83;;;4.10;;
16979;SDS011;42288;52.182;21.156;2023-07-28T11:24:34;5.07;;;3.83;;
16979;SDS011;42288;52.182;21.156;2023-07-28T11:27:00;5.90;;;3.53;;
16979;SDS011;42288;52.182;21.156;2023-07-28T11:29:27;5.83;;;3.80;;
16979;SDS011;42288;52.182;21.156;2023-07-28T11:31:53;4.63;;;3.67;;
16979;SDS011;42288;52.182;21.156;2023-07-28T11:34:19;5.43;;;4.10;;
16979;SDS011;42288;52.182;21.156;2023-07-28T11:36:44;7.23;;;4.20;;
16979;SDS011;42288;52.182;21.156;2023-07-28T11:39:10;6.77;;;3.63;;
16979;SDS011;42288;52.182;21.156;2023-07-28T11:41:37;6.67;;;3.73;;
16979;SDS011;42288;52.182;21.156;2023-07-28T11:44:04;6.80;;;3.80;;
16979;SDS011;42288;52.182;21.156;2023-07-28T11:46:34;6.50;;;3.43;;
16979;SDS011;42288;52.182;21.156;2023-07-28T11:49:17;6.50;;;3.00;;
16979;SDS011;42288;52.182;21.156;2023-07-28T11:51:47;5.47;;;3.47;;
16979;SDS011;42288;52.182;21.156;2023-07-28T11:54:14;6.77;;;3.07;;
16979;SDS011;42288;52.182;21.156;2023-07-28T11:56:42;6.93;;;3.27;;
16979;SDS011;42288;52.182;21.156;2023-07-28T11:59:10;3.93;;;3.10;;
16979;SDS011;42288;52.182;21.156;2023-07-28T12:04:23;2.93;;;2.57;;
16979;SDS011;42288;52.182;21.156;2023-07-28T12:12:11;4.57;;;2.37;;
16979;SDS011;42288;52.182;21.156;2023-07-28T12:14:38;2.63;;;2.00;;
16979;SDS011;42288;52.182;21.156;2023-07-28T12:17:11;3.27;;;2.10;;
16979;SDS011;42288;52.182;21.156;2023-07-28T12:19:41;2.37;;;1.80;;
16979;SDS011;42288;52.182;21.156;2023-07-28T12:22:19;4.30;;;1.70;;
16979;SDS011;42288;52.182;21.156;2023-07-28T12:24:44;2.30;;;1.60;;
16979;SDS011;42288;52.182;21.156;2023-07-28T12:27:10;2.20;;;1.70;;
16979;SDS011;42288;52.182;21.156;2023-07-28T12:29:38;2.23;;;1.57;;
16979;SDS011;42288;52.182;21.156;2023-07-28T12:32:04;3.53;;;1.83;;
16979;SDS011;42288;52.182;21.156;2023-07-28T12:34:30;2.30;;;1.53;;
16979;SDS011;42288;52.182;21.156;2023-07-28T12:36:55;2.73;;;1.87;;
16979;SDS011;42288;52.182;21.156;2023-07-28T12:39:21;3.10;;;1.70;;
16979;SDS011;42288;52.182;21.156;2023-07-28T12:41:48;2.17;;;1.80;;
16979;SDS011;42288;52.182;21.156;2023-07-28T12:44:14;3.30;;;1.50;;
16979;SDS011;42288;52.182;21.156;2023-07-28T12:46:39;3.77;;;1.83;;
16979;SDS011;42288;52.182;21.156;2023-07-28T12:49:05;1.57;;;1.20;;
16979;SDS011;42288;52.182;21.156;2023-07-28T12:51:32;2.17;;;1.57;;
16979;SDS011;42288;52.182;21.156;2023-07-28T12:53:57;2.20;;;1.60;;
16979;SDS011;42288;52.182;21.156;2023-07-28T12:56:23;1.97;;;1.70;;
16979;SDS011;42288;52.182;21.156;2023-07-28T12:58:49;4.70;;;2.00;;
16979;SDS011;42288;52.182;21.156;2023-07-28T13:01:14;5.70;;;1.80;;
16979;SDS011;42288;52.182;21.156;2023-07-28T13:03:40;5.70;;;1.90;;
16979;SDS011;42288;52.182;21.156;2023-07-28T13:06:05;4.30;;;1.70;;
16979;SDS011;42288;52.182;21.156;2023-07-28T13:08:31;2.70;;;1.97;;
16979;SDS011;42288;52.182;21.156;2023-07-28T13:10:57;2.83;;;1.90;;
16979;SDS011;42288;52.182;21.156;2023-07-28T13:13:22;1.63;;;1.40;;
16979;SDS011;42288;52.182;21.156;2023-07-28T13:15:48;3.00;;;1.70;;
16979;SDS011;42288;52.182;21.156;2023-07-28T13:18:14;4.37;;;1.87;;
16979;SDS011;42288;52.182;21.156;2023-07-28T13:20:39;4.00;;;1.57;;
16979;SDS011;42288;52.182;21.156;2023-07-28T13:23:05;1.37;;;1.23;;
16979;SDS011;42288;52.182;21.156;2023-07-28T13:25:30;3.13;;;1.60;;
16979;SDS011;42288;52.182;21.156;2023-07-28T13:27:56;1.77;;;1.10;;
16979;SDS011;42288;52.182;21.156;2023-07-28T13:30:22;1.20;;;1.00;;
16979;SDS011;42288;52.182;21.156;2023-07-28T13:32:47;1.93;;;0.90;;
16979;SDS011;42288;52.182;21.156;2023-07-28T13:35:13;2.10;;;1.50;;
16979;SDS011;42288;52.182;21.156;2023-07-28T13:37:39;2.90;;;1.10;;
16979;SDS011;42288;52.182;21.156;2023-07-28T13:40:05;2.03;;;1.17;;
16979;SDS011;42288;52.182;21.156;2023-07-28T13:42:31;1.50;;;1.20;;
16979;SDS011;42288;52.182;21.156;2023-07-28T13:44:57;2.00;;;1.17;;
16979;SDS011;42288;52.182;21.156;2023-07-28T13:47:22;1.63;;;0.80;;
16979;SDS011;42288;52.182;21.156;2023-07-28T13:49:48;2.53;;;0.90;;
16979;SDS011;42288;52.182;21.156;2023-07-28T13:52:13;2.07;;;1.00;;
16979;SDS011;42288;52.182;21.156;2023-07-28T13:54:39;1.47;;;1.03;;
16979;SDS011;42288;52.182;21.156;2023-07-28T13:57:05;3.00;;;1.10;;
16979;SDS011;42288;52.182;21.156;2023-07-28T13:59:31;1.80;;;1.20;;
16979;SDS011;42288;52.182;21.156;2023-07-28T14:01:56;2.60;;;1.40;;
16979;SDS011;42288;52.182;21.156;2023-07-28T14:04:23;1.40;;;1.00;;
16979;SDS011;42288;52.182;21.156;2023-07-28T14:06:49;1.83;;;1.20;;
16979;SDS011;42288;52.182;21.156;2023-07-28T14:09:14;3.93;;;1.20;;
16979;SDS011;42288;52.182;21.156;2023-07-28T14:11:40;3.13;;;1.47;;
16979;SDS011;42288;52.182;21.156;2023-07-28T14:14:05;2.80;;;1.20;;
16979;SDS011;42288;52.182;21.156;2023-07-28T14:16:31;2.00;;;1.40;;
16979;SDS011;42288;52.182;21.156;2023-07-28T14:18:57;5.80;;;1.27;;
16979;SDS011;42288;52.182;21.156;2023-07-28T14:21:22;3.73;;;1.20;;
16979;SDS011;42288;52.182;21.156;2023-07-28T14:23:48;1.40;;;1.27;;
16979;SDS011;42288;52.182;21.156;2023-07-28T14:26:13;1.67;;;1.07;;
16979;SDS011;42288;52.182;21.156;2023-07-28T14:28:39;4.80;;;1.20;;
16979;SDS011;42288;52.182;21.156;2023-07-28T14:31:05;1.07;;;0.97;;
16979;SDS011;42288;52.182;21.156;2023-07-28T14:33:30;2.20;;;1.20;;
16979;SDS011;42288;52.182;21.156;2023-07-28T14:35:56;2.53;;;1.30;;
16979;SDS011;42288;52.182;21.156;2023-07-28T14:38:21;2.73;;;1.40;;
16979;SDS011;42288;52.182;21.156;2023-07-28T14:40:47;1.37;;;1.27;;
16979;SDS011;42288;52.182;21.156;2023-07-28T14:43:13;1.43;;;1.10;;
16979;SDS011;42288;52.182;21.156;2023-07-28T14:45:40;1.67;;;1.30;;
16979;SDS011;42288;52.182;21.156;2023-07-28T14:48:05;2.83;;;1.27;;
16979;SDS011;42288;52.182;21.156;2023-07-28T14:50:31;1.43;;;1.20;;
16979;SDS011;42288;52.182;21.156;2023-07-28T14:53:00;2.77;;;1.80;;
16979;SDS011;42288;52.182;21.156;2023-07-28T14:55:26;1.73;;;1.50;;